Time;durP1;ratioP1;P1;durP2;ratioP2;P2;SDS_P1;SDS_P2;PMS_P1;PMS_P2;Temp;Humidity;BMP_temperature;BMP_pressure;BME280_temperature;BME280_humidity;BME280_pressure;Samples;Min_cycle;Max_cycle;Signal;HPM_P1;HPM_P2
2021/12/30 00:02:18;;;;;;;65.10;9.73;;;;;;;0.75;100.00;98602.75;4501064;31;20092;-74
2021/12/30 00:04:45;;;;;;;71.75;8.82;;;;;;;0.78;100.00;98608.56;4500991;31;20104;-74
2021/12/30 00:07:12;;;;;;;42.40;7.72;;;;;;;0.90;100.00;98598.53;4501034;31;20089;-74
2021/12/30 00:09:39;;;;;;;99.20;9.07;;;;;;;0.97;100.00;98612.75;4500984;31;20088;-74
2021/12/30 00:12:07;;;;;;;70.32;9.05;;;;;;;0.80;100.00;98606.75;4501125;31;20111;-74
2021/12/30 00:14:40;;;;;;;40.88;7.95;;;;;;;0.74;100.00;98614.78;4500824;31;20148;-74
2021/12/30 00:17:07;;;;;;;55.95;8.07;;;;;;;0.75;100.00;98608.72;4500876;31;20092;-74
2021/12/30 00:19:34;;;;;;;52.30;8.55;;;;;;;0.85;100.00;98609.09;4500919;31;20081;-74
2021/12/30 00:22:02;;;;;;;79.15;8.90;;;;;;;0.80;100.00;98606.75;4500962;31;20122;-74
2021/12/30 00:24:29;;;;;;;114.20;10.32;;;;;;;0.70;100.00;98605.56;4500941;31;20118;-74
2021/12/30 00:26:56;;;;;;;53.30;9.07;;;;;;;0.77;100.00;98609.47;4500884;31;20080;-74
2021/12/30 00:29:24;;;;;;;72.05;10.45;;;;;;;0.90;100.00;98622.56;4500785;31;20100;-74
2021/12/30 00:31:52;;;;;;;70.57;9.48;;;;;;;0.98;100.00;98629.91;4500864;31;20122;-74
2021/12/30 00:34:19;;;;;;;91.37;10.50;;;;;;;0.93;100.00;98627.56;4500762;31;20218;-74
2021/12/30 00:36:46;;;;;;;174.68;13.27;;;;;;;0.90;100.00;98632.06;4499507;31;20107;-74
2021/12/30 00:39:14;;;;;;;126.97;11.75;;;;;;;0.93;100.00;98637.06;4500593;31;20093;-74
2021/12/30 00:41:41;;;;;;;188.32;11.82;;;;;;;0.95;100.00;98643.78;4500736;31;20084;-74
2021/12/30 00:44:08;;;;;;;77.47;9.48;;;;;;;0.92;100.00;98643.94;4500695;31;20099;-74
2021/12/30 00:46:35;;;;;;;97.82;12.85;;;;;;;1.00;100.00;98639.25;4500597;31;20085;-74
2021/12/30 00:49:03;;;;;;;64.45;10.60;;;;;;;1.00;100.00;98648.69;4500774;31;20091;-74
2021/12/30 00:51:30;;;;;;;51.83;10.40;;;;;;;1.09;100.00;98653.41;4500731;31;20104;-74
2021/12/30 00:53:58;;;;;;;114.78;10.90;;;;;;;1.12;100.00;98657.56;4500567;31;20441;-74
2021/12/30 00:56:25;;;;;;;74.07;10.05;;;;;;;1.05;100.00;98668.19;4500786;31;20085;-74
2021/12/30 00:58:53;;;;;;;82.85;9.43;;;;;;;0.90;100.00;98660.44;4500695;31;20165;-74
2021/12/30 01:01:20;;;;;;;67.85;9.80;;;;;;;0.85;100.00;98668.41;4489231;31;20100;-74
2021/12/30 01:03:48;;;;;;;182.85;13.73;;;;;;;0.80;100.00;98672.94;4483805;31;20091;-74
2021/12/30 01:06:15;;;;;;;159.52;12.75;;;;;;;0.84;100.00;98666.72;4484717;31;20111;-74
2021/12/30 01:08:42;;;;;;;119.07;10.90;;;;;;;0.92;100.00;98671.50;4484472;32;20475;-74
2021/12/30 01:11:11;;;;;;;118.95;11.02;;;;;;;0.92;100.00;98679.22;4484718;31;20382;-74
2021/12/30 01:13:43;;;;;;;134.77;11.70;;;;;;;0.94;100.00;98672.22;4484554;31;20118;-74
2021/12/30 01:16:22;;;;;;;129.27;9.40;;;;;;;1.06;100.00;98671.62;4484431;31;20096;-74
2021/12/30 01:21:24;;;;;;;137.48;10.68;;;;;;;0.77;100.00;98679.09;4484682;31;20084;-74
2021/12/30 01:23:51;;;;;;;114.40;11.12;;;;;;;0.81;100.00;98687.50;4484436;31;20099;-74
2021/12/30 01:26:18;;;;;;;137.30;11.27;;;;;;;0.90;100.00;98688.81;4484324;31;20080;-74
2021/12/30 01:28:47;;;;;;;76.25;9.15;;;;;;;0.98;100.00;98697.78;4484403;32;20093;-74
2021/12/30 01:31:16;;;;;;;95.25;11.18;;;;;;;1.03;100.00;98688.09;4484700;31;20096;-74
2021/12/30 01:33:46;;;;;;;85.12;9.45;;;;;;;1.06;100.00;98697.44;4484372;31;20100;-74
2021/12/30 01:36:14;;;;;;;61.42;9.50;;;;;;;1.08;100.00;98693.00;4484156;31;20135;-75
2021/12/30 01:38:43;;;;;;;72.40;10.27;;;;;;;1.07;100.00;98691.34;4484188;31;20434;-75
2021/12/30 01:41:10;;;;;;;91.68;10.57;;;;;;;1.08;100.00;98698.16;4484209;31;20100;-74
2021/12/30 01:43:38;;;;;;;127.07;12.80;;;;;;;1.20;100.00;98699.28;4484478;32;20164;-74
2021/12/30 01:46:06;;;;;;;69.12;9.55;;;;;;;1.20;100.00;98689.78;4484097;31;20092;-74
2021/12/30 01:48:34;;;;;;;29.08;7.50;;;;;;;1.28;100.00;98706.63;4484340;31;20085;-74
2021/12/30 01:51:03;;;;;;;61.90;9.18;;;;;;;1.36;100.00;98704.47;4484144;31;20115;-74
2021/12/30 01:53:30;;;;;;;43.40;8.15;;;;;;;1.29;100.00;98703.97;4484345;31;20100;-74
2021/12/30 01:55:57;;;;;;;85.87;9.23;;;;;;;1.33;100.00;98708.06;4480518;31;108391;-74
2021/12/30 01:58:25;;;;;;;49.22;8.05;;;;;;;1.25;100.00;98702.44;4484037;32;20101;-75
2021/12/30 02:00:53;;;;;;;35.35;7.40;;;;;;;1.42;100.00;98693.81;4491242;31;20484;-74
2021/12/30 02:03:21;;;;;;;27.52;8.27;;;;;;;1.57;100.00;98677.50;4499862;31;20122;-74
2021/12/30 02:05:50;;;;;;;36.30;7.45;;;;;;;1.55;100.00;98676.75;4499586;31;20122;-74
2021/12/30 02:08:18;;;;;;;54.17;8.63;;;;;;;1.60;100.00;98689.41;4499553;31;20092;-74
2021/12/30 02:10:48;;;;;;;51.10;9.68;;;;;;;1.56;100.00;98696.50;4499723;31;20087;-74
2021/12/30 02:13:17;;;;;;;64.22;10.15;;;;;;;1.46;100.00;98692.75;4499668;31;20203;-74
2021/12/30 02:15:44;;;;;;;45.55;9.45;;;;;;;1.45;100.00;98696.22;4500625;31;20156;-74
2021/12/30 02:18:11;;;;;;;99.00;10.90;;;;;;;1.50;100.00;98693.41;4501979;31;20100;-75
2021/12/30 02:20:49;;;;;;;77.18;10.70;;;;;;;1.46;100.00;98690.16;4501691;31;20116;-74
2021/12/30 02:23:21;;;;;;;118.13;13.35;;;;;;;1.36;100.00;98691.56;4501948;31;20591;-74
2021/12/30 02:25:49;;;;;;;47.90;10.57;;;;;;;1.27;100.00;98698.03;4501663;31;20576;-74
2021/12/30 02:28:18;;;;;;;46.58;10.30;;;;;;;1.22;100.00;98689.72;4500640;31;20111;-74
2021/12/30 02:30:45;;;;;;;67.82;11.77;;;;;;;1.42;100.00;98693.81;4501658;31;20122;-74
2021/12/30 02:33:13;;;;;;;93.07;10.43;;;;;;;1.37;100.00;98695.81;4501720;31;20172;-74
2021/12/30 02:35:41;;;;;;;116.00;12.45;;;;;;;1.42;100.00;98688.66;4501627;31;20088;-74
2021/12/30 02:38:09;;;;;;;81.97;10.57;;;;;;;1.48;100.00;98687.50;4501376;31;20100;-74
2021/12/30 02:40:49;;;;;;;110.97;12.45;;;;;;;1.48;100.00;98685.75;4501640;31;20148;-74
2021/12/30 02:43:22;;;;;;;141.37;13.15;;;;;;;1.35;100.00;98685.56;4501574;31;20076;-74
2021/12/30 02:45:50;;;;;;;100.60;10.63;;;;;;;1.21;100.00;98685.44;4501463;31;20103;-74
2021/12/30 02:48:23;;;;;;;75.53;11.12;;;;;;;1.16;100.00;98677.94;4500232;31;20123;-74
2021/12/30 02:50:52;;;;;;;121.35;11.65;;;;;;;1.22;100.00;98677.63;4501656;31;20131;-74
2021/12/30 02:53:20;;;;;;;95.20;11.77;;;;;;;1.31;100.00;98680.66;4501567;31;20840;-74
2021/12/30 02:55:49;;;;;;;117.82;11.10;;;;;;;1.38;100.00;98687.16;4501415;31;20118;-74
2021/12/30 02:58:17;;;;;;;143.30;15.15;;;;;;;1.44;100.00;98686.84;4501372;31;20489;-74
2021/12/30 03:00:45;;;;;;;74.70;11.32;;;;;;;1.21;100.00;98688.88;4493650;31;20440;-74
2021/12/30 03:03:31;;;;;;;79.28;10.00;;;;;;;1.31;100.00;98696.13;4485976;31;20088;-74
2021/12/30 03:06:01;;;;;;;62.85;9.77;;;;;;;1.32;100.00;98698.63;4485638;31;20076;-74
2021/12/30 03:08:28;;;;;;;116.43;12.23;;;;;;;1.30;100.00;98702.19;4485537;31;20093;-74
2021/12/30 03:10:56;;;;;;;70.05;11.38;;;;;;;1.34;100.00;98706.31;4485581;31;20092;-74
2021/12/30 03:13:32;;;;;;;93.65;12.32;;;;;;;1.38;100.00;98694.91;4485575;31;20157;-74
2021/12/30 03:16:03;;;;;;;97.80;11.23;;;;;;;1.32;100.00;98702.97;4485536;31;20068;-74
2021/12/30 03:18:32;;;;;;;98.55;12.75;;;;;;;1.36;100.00;98701.88;4485559;31;20096;-74
2021/12/30 03:21:01;;;;;;;57.92;9.82;;;;;;;1.32;100.00;98702.97;4485748;31;20095;-74
2021/12/30 03:23:28;;;;;;;154.93;15.90;;;;;;;1.39;100.00;98699.13;4485445;31;20092;-74
2021/12/30 03:25:55;;;;;;;108.90;12.13;;;;;;;1.35;100.00;98697.66;4485720;31;20135;-74
2021/12/30 03:28:22;;;;;;;107.07;10.75;;;;;;;1.35;100.00;98693.31;4484726;32;20123;-74
2021/12/30 03:30:51;;;;;;;134.75;14.07;;;;;;;1.21;100.00;98699.19;4485397;31;20446;-74
2021/12/30 03:33:20;;;;;;;88.28;11.80;;;;;;;1.35;100.00;98713.13;4485707;32;20153;-74
2021/12/30 03:35:47;;;;;;;67.12;10.75;;;;;;;1.30;100.00;98708.19;4485392;31;20153;-74
2021/12/30 03:38:14;;;;;;;104.68;12.25;;;;;;;1.40;100.00;98705.97;4485117;31;20459;-74
2021/12/30 03:40:42;;;;;;;57.40;10.25;;;;;;;1.38;100.00;98698.31;4485525;31;20136;-74
2021/12/30 03:43:09;;;;;;;102.28;11.95;;;;;;;1.48;100.00;98708.16;4485199;31;20093;-74
2021/12/30 03:45:36;;;;;;;49.17;10.38;;;;;;;1.46;100.00;98707.41;4485400;31;20079;-74
2021/12/30 03:48:04;;;;;;;56.55;11.30;;;;;;;1.61;100.00;98716.09;4485224;32;20131;-74
2021/12/30 03:50:31;;;;;;;69.55;11.75;;;;;;;1.66;100.00;98721.81;4485411;31;20132;-74
2021/12/30 03:53:00;;;;;;;34.85;10.23;;;;;;;1.65;100.00;98725.31;4485391;31;20215;-74
2021/12/30 03:55:29;;;;;;;56.47;11.48;;;;;;;1.64;100.00;98729.66;4484287;32;20137;-74
2021/12/30 03:57:57;;;;;;;35.42;10.18;;;;;;;1.35;100.00;98738.94;4485081;31;20157;-74
2021/12/30 04:00:26;;;;;;;44.42;9.20;;;;;;;1.46;100.00;98744.37;4490665;31;20108;-74
2021/12/30 04:02:54;;;;;;;38.72;9.57;;;;;;;1.50;100.00;98734.72;4499671;31;20135;-74
2021/12/30 04:05:23;;;;;;;51.08;10.02;;;;;;;1.61;100.00;98726.41;4501242;31;20096;-74
2021/12/30 04:07:51;;;;;;;50.63;9.93;;;;;;;1.59;100.00;98721.34;4500631;31;20119;-74
2021/12/30 04:10:21;;;;;;;54.78;11.77;;;;;;;1.52;100.00;98720.00;4500932;31;20146;-74
2021/12/30 04:12:50;;;;;;;69.93;9.95;;;;;;;1.50;100.00;98719.22;4500881;31;20564;-74
2021/12/30 04:15:18;;;;;;;131.85;12.60;;;;;;;1.46;100.00;98731.47;4500915;31;20343;-74
2021/12/30 04:17:45;;;;;;;152.55;14.45;;;;;;;1.35;100.00;98741.53;4500833;31;20096;-74
2021/12/30 04:20:14;;;;;;;116.70;12.23;;;;;;;1.32;100.00;98744.28;4500875;31;20107;-74
2021/12/30 04:22:42;;;;;;;153.07;13.30;;;;;;;1.28;100.00;98758.25;4500844;31;20109;-74
2021/12/30 04:25:12;;;;;;;207.18;15.07;;;;;;;1.27;100.00;98762.53;4500904;31;20122;-74
2021/12/30 04:27:40;;;;;;;227.75;18.17;;;;;;;1.23;100.00;98768.78;4500733;31;20167;-74
2021/12/30 04:30:09;;;;;;;166.20;12.27;;;;;;;1.26;100.00;98767.78;4500894;31;20396;-74
2021/12/30 04:32:37;;;;;;;203.75;16.33;;;;;;;1.25;100.00;98761.78;4500672;31;20088;-74
2021/12/30 04:35:07;;;;;;;179.90;14.32;;;;;;;1.14;100.00;98767.50;4500948;31;20105;-74
2021/12/30 04:37:34;;;;;;;199.62;14.87;;;;;;;1.24;100.00;98779.03;4500514;31;20096;-74
2021/12/30 04:40:04;;;;;;;247.23;18.05;;;;;;;1.26;100.00;98785.84;4500669;31;20169;-74
2021/12/30 04:42:31;;;;;;;389.85;22.83;;;;;;;1.21;100.00;98805.00;4500606;31;20092;-74
2021/12/30 04:44:58;;;;;;;247.70;16.05;;;;;;;1.12;100.00;98808.03;4500632;31;20111;-74
2021/12/30 04:47:26;;;;;;;307.23;20.37;;;;;;;1.19;100.00;98805.97;4500556;31;20100;-74
2021/12/30 04:49:56;;;;;;;112.97;13.05;;;;;;;1.19;100.00;98804.22;4500721;31;20096;-74
2021/12/30 04:52:24;;;;;;;145.05;14.02;;;;;;;1.18;100.00;98805.16;4500722;31;20092;-74
2021/12/30 04:54:52;;;;;;;151.95;13.48;;;;;;;1.22;100.00;98821.31;4500594;31;20511;-74
2021/12/30 04:57:19;;;;;;;213.65;14.15;;;;;;;1.24;100.00;98830.66;4500327;31;20123;-74
2021/12/30 04:59:46;;;;;;;182.27;15.93;;;;;;;1.41;100.00;98841.87;4499286;31;20123;-74
2021/12/30 05:02:13;;;;;;;150.23;15.15;;;;;;;1.32;100.00;98844.94;4484802;32;20446;-74
2021/12/30 05:04:41;;;;;;;195.90;16.08;;;;;;;1.26;100.00;98852.94;4484609;31;20128;-74
2021/12/30 05:07:08;;;;;;;88.25;12.57;;;;;;;1.22;100.00;98855.69;4484514;31;20089;-74
2021/12/30 05:09:36;;;;;;;169.43;13.35;;;;;;;1.28;100.00;98858.88;4484647;31;20100;-74
2021/12/30 05:12:03;;;;;;;166.62;15.10;;;;;;;1.31;100.00;98869.06;4484560;31;20084;-74
2021/12/30 05:14:30;;;;;;;115.43;13.62;;;;;;;1.29;100.00;98878.59;4484856;31;20122;-74
2021/12/30 05:17:03;;;;;;;277.90;18.67;;;;;;;1.39;100.00;98892.72;4484615;31;20508;-74
2021/12/30 05:19:30;;;;;;;147.52;14.30;;;;;;;1.48;100.00;98894.03;4484862;31;20145;-74
2021/12/30 05:21:58;;;;;;;229.70;19.87;;;;;;;1.51;100.00;98886.13;4484476;31;20556;-74
2021/12/30 05:24:25;;;;;;;190.40;18.30;;;;;;;1.49;100.00;98888.78;4484418;31;20092;-74
2021/12/30 05:26:52;;;;;;;221.90;17.15;;;;;;;1.54;100.00;98904.84;4484309;31;20092;-74
2021/12/30 05:29:19;;;;;;;291.48;19.50;;;;;;;1.45;100.00;98909.66;4484586;31;20100;-74
2021/12/30 05:31:47;;;;;;;279.90;21.58;;;;;;;1.53;100.00;98903.22;4484391;31;20164;-74
2021/12/30 05:34:15;;;;;;;219.20;17.20;;;;;;;1.32;100.00;98901.69;4484591;31;20119;-74
2021/12/30 05:36:42;;;;;;;342.23;29.02;;;;;;;1.33;100.00;98898.19;4484134;31;20093;-74
2021/12/30 05:39:10;;;;;;;276.33;18.90;;;;;;;1.17;100.00;98900.69;4484159;31;20115;-74
2021/12/30 05:41:37;;;;;;;173.77;16.95;;;;;;;1.21;100.00;98899.62;4484164;31;20096;-74
2021/12/30 05:44:05;;;;;;;269.33;23.08;;;;;;;1.38;100.00;98909.13;4484187;31;20120;-74
2021/12/30 05:46:32;;;;;;;173.70;16.37;;;;;;;1.41;100.00;98909.00;4484175;31;20443;-74
2021/12/30 05:48:59;;;;;;;243.60;17.60;;;;;;;1.45;100.00;98915.66;4483950;32;20100;-74
2021/12/30 05:51:26;;;;;;;160.73;14.27;;;;;;;1.43;100.00;98917.47;4485729;31;20092;-74
2021/12/30 05:53:54;;;;;;;222.07;16.48;;;;;;;1.44;100.00;98918.31;4486142;31;20127;-74
2021/12/30 05:56:21;;;;;;;242.10;16.55;;;;;;;1.44;100.00;98920.88;4486310;31;20104;-74
2021/12/30 05:58:48;;;;;;;168.55;15.63;;;;;;;1.48;100.00;98912.91;4485990;31;20128;-74
2021/12/30 06:01:15;;;;;;;203.40;14.23;;;;;;;1.51;100.00;98912.75;4497064;31;20849;-74
2021/12/30 06:03:43;;;;;;;200.65;15.48;;;;;;;1.38;100.00;98904.81;4501793;31;20114;-74
2021/12/30 06:06:10;;;;;;;276.10;19.80;;;;;;;1.28;100.00;98905.34;4501737;31;20123;-74
2021/12/30 06:08:38;;;;;;;191.00;17.75;;;;;;;1.11;100.00;98912.16;4501692;31;20100;-74
2021/12/30 06:11:06;;;;;;;174.77;14.85;;;;;;;1.05;100.00;98933.91;4502069;31;20477;-74
2021/12/30 06:13:33;;;;;;;135.12;14.18;;;;;;;1.07;100.00;98951.91;4500691;31;20083;-74
2021/12/30 06:16:00;;;;;;;123.20;12.73;;;;;;;1.21;100.00;98958.97;4501772;31;20095;-74
2021/12/30 06:18:27;;;;;;;238.10;21.55;;;;;;;1.26;100.00;98951.00;4501974;31;20122;-74
2021/12/30 06:20:55;;;;;;;141.73;13.93;;;;;;;1.34;100.00;98943.75;4501798;31;20088;-74
2021/12/30 06:23:22;;;;;;;175.50;14.10;;;;;;;1.39;100.00;98946.94;4501866;31;20200;-74
2021/12/30 06:25:49;;;;;;;198.05;16.52;;;;;;;1.32;100.00;98955.91;4501726;31;20100;-74
2021/12/30 06:28:17;;;;;;;230.82;16.70;;;;;;;1.13;100.00;98955.94;4501626;31;20111;-74
2021/12/30 06:30:44;;;;;;;213.00;18.10;;;;;;;0.99;100.00;98966.91;4501811;31;20092;-74
2021/12/30 06:33:11;;;;;;;177.30;16.85;;;;;;;1.00;100.00;98965.97;4501713;31;20096;-74
2021/12/30 06:35:38;;;;;;;179.27;15.18;;;;;;;0.98;100.00;98972.97;4501699;31;20122;-74
2021/12/30 06:38:06;;;;;;;211.62;15.65;;;;;;;0.98;100.00;98983.28;4501307;31;20127;-74
2021/12/30 06:40:33;;;;;;;248.98;16.75;;;;;;;0.93;100.00;98977.50;4500321;31;20119;-74
2021/12/30 06:43:00;;;;;;;267.90;27.25;;;;;;;0.83;100.00;98983.09;4501367;31;20114;-74
2021/12/30 06:45:27;;;;;;;195.18;15.85;;;;;;;0.87;100.00;98994.09;4501584;31;20103;-74
2021/12/30 06:47:55;;;;;;;101.90;13.32;;;;;;;0.98;100.00;99006.50;4501253;31;20516;-74
2021/12/30 06:50:24;;;;;;;196.52;13.13;;;;;;;1.08;100.00;99015.50;4501554;31;20122;-74
2021/12/30 06:52:52;;;;;;;200.75;17.30;;;;;;;1.20;100.00;99027.81;4501433;31;20159;-74
2021/12/30 06:55:19;;;;;;;236.85;17.60;;;;;;;1.27;100.00;99036.09;4501518;31;20202;-74
2021/12/30 06:57:46;;;;;;;313.70;20.37;;;;;;;1.28;100.00;99037.78;4501404;31;20096;-74
2021/12/30 07:00:14;;;;;;;332.20;22.50;;;;;;;1.29;100.00;99048.94;4497077;31;20092;-74
2021/12/30 07:02:43;;;;;;;291.85;18.52;;;;;;;1.33;100.00;99060.78;4484673;31;20114;-74
2021/12/30 07:05:11;;;;;;;261.17;15.73;;;;;;;1.37;100.00;99057.16;4485492;31;20123;-74
2021/12/30 07:07:38;;;;;;;217.85;16.12;;;;;;;1.49;100.00;99055.75;4485410;31;20077;-74
2021/12/30 07:10:06;;;;;;;283.00;18.65;;;;;;;1.50;100.00;99047.94;4485595;31;20367;-74
2021/12/30 07:12:33;;;;;;;301.75;21.00;;;;;;;1.22;100.00;99038.91;4485333;31;20088;-74
2021/12/30 07:15:00;;;;;;;265.35;19.30;;;;;;;1.22;100.00;99049.22;4485506;31;20483;-74
2021/12/30 07:17:30;;;;;;;307.40;17.73;;;;;;;1.19;100.00;99051.94;4485854;31;20097;-74
2021/12/30 07:19:57;;;;;;;312.48;21.50;;;;;;;1.24;100.00;99047.44;4485450;31;20454;-74
2021/12/30 07:22:24;;;;;;;235.15;16.60;;;;;;;1.13;100.00;99047.06;4485637;31;20537;-74
2021/12/30 07:25:15;;;;;;;223.70;16.98;;;;;;;1.23;100.00;99050.91;4485530;31;20138;-74
2021/12/30 07:27:44;;;;;;;364.43;19.27;;;;;;;1.30;100.00;99056.59;4485624;31;20544;-75
2021/12/30 07:30:12;;;;;;;309.87;24.40;;;;;;;0.98;100.00;99050.34;4485544;31;20160;-74
2021/12/30 07:32:40;;;;;;;197.48;14.13;;;;;;;0.99;100.00;99063.19;4485610;31;20131;-74
2021/12/30 07:35:07;;;;;;;287.95;17.62;;;;;;;1.01;100.00;99073.44;4485542;31;20100;-74
2021/12/30 07:37:35;;;;;;;192.48;14.00;;;;;;;1.09;100.00;99086.84;4485283;31;20179;-74
2021/12/30 07:40:03;;;;;;;192.62;14.43;;;;;;;1.20;100.00;99082.00;4485569;31;20118;-74
2021/12/30 07:42:30;;;;;;;232.82;15.90;;;;;;;1.21;100.00;99072.50;4485143;31;20559;-74
2021/12/30 07:44:57;;;;;;;233.60;18.42;;;;;;;1.14;100.00;99071.97;4485758;31;20088;-74
2021/12/30 07:47:25;;;;;;;191.95;16.10;;;;;;;0.87;100.00;99080.03;4485305;31;20139;-74
2021/12/30 07:49:52;;;;;;;192.18;13.82;;;;;;;0.99;100.00;99083.81;4485390;31;20085;-74
2021/12/30 07:52:25;;;;;;;249.95;15.75;;;;;;;1.08;100.00;99085.16;4485385;31;20111;-74
2021/12/30 07:54:53;;;;;;;214.27;14.80;;;;;;;1.05;100.00;99082.72;4485229;31;20092;-75
2021/12/30 07:57:23;;;;;;;169.20;13.02;;;;;;;1.03;100.00;99094.81;4485048;31;20088;-74
2021/12/30 07:59:52;;;;;;;205.20;16.45;;;;;;;1.05;100.00;99083.53;4486820;31;20096;-74
2021/12/30 08:02:19;;;;;;;166.40;15.00;;;;;;;1.21;100.00;99088.84;4500822;31;20103;-74
2021/12/30 08:04:47;;;;;;;175.93;14.48;;;;;;;1.31;100.00;99089.25;4500903;31;20119;-74
2021/12/30 08:07:19;;;;;;;190.38;15.45;;;;;;;1.36;100.00;99087.31;4500719;31;20091;-74
2021/12/30 08:09:46;;;;;;;155.15;13.60;;;;;;;1.39;100.00;99083.75;4501275;31;20111;-74
2021/12/30 08:12:14;;;;;;;204.73;16.58;;;;;;;1.36;100.00;99089.03;4500834;31;20453;-74
2021/12/30 08:14:41;;;;;;;218.02;19.35;;;;;;;1.49;100.00;99087.56;4500395;31;20092;-74
2021/12/30 08:17:09;;;;;;;180.63;14.63;;;;;;;1.56;100.00;99088.97;4500885;31;20118;-74
2021/12/30 08:19:36;;;;;;;166.07;15.25;;;;;;;1.63;100.00;99097.25;4501036;31;20510;-74
2021/12/30 08:22:04;;;;;;;158.00;14.60;;;;;;;1.80;100.00;99091.25;4500874;31;20092;-74
2021/12/30 08:24:31;;;;;;;124.40;14.07;;;;;;;1.85;100.00;99088.50;4500819;31;20115;-74
2021/12/30 08:27:13;;;;;;;201.93;15.50;;;;;;;1.84;100.00;99092.81;4500888;31;20433;-74
2021/12/30 08:29:41;;;;;;;156.18;16.42;;;;;;;1.89;100.00;99095.16;4500901;31;20118;-74
2021/12/30 08:32:11;;;;;;;129.77;13.73;;;;;;;1.82;100.00;99106.69;4500768;31;20187;-74
2021/12/30 08:34:40;;;;;;;144.37;16.45;;;;;;;1.80;100.00;99104.19;4500759;31;20111;-74
2021/12/30 08:37:07;;;;;;;137.80;14.15;;;;;;;1.78;100.00;99116.34;4500851;31;20084;-74
2021/12/30 08:39:36;;;;;;;158.32;14.73;;;;;;;1.98;100.00;99120.53;4500732;31;20127;-74
2021/12/30 08:42:05;;;;;;;199.05;16.55;;;;;;;1.97;100.00;99113.72;4500675;31;20092;-74
2021/12/30 08:44:32;;;;;;;157.55;18.45;;;;;;;2.02;100.00;99118.66;4500929;31;20157;-74
2021/12/30 08:46:59;;;;;;;181.60;19.17;;;;;;;2.10;100.00;99121.72;4500558;31;20099;-74
2021/12/30 08:49:26;;;;;;;168.85;18.27;;;;;;;2.28;100.00;99125.13;4500612;31;20556;-74
2021/12/30 08:51:53;;;;;;;215.07;19.65;;;;;;;2.48;100.00;99124.13;4500910;31;20344;-74
2021/12/30 08:54:20;;;;;;;123.38;15.38;;;;;;;2.39;100.00;99128.03;4500632;31;20097;-74
2021/12/30 08:56:48;;;;;;;186.35;19.00;;;;;;;2.48;100.00;99129.31;4500605;31;20098;-74
2021/12/30 08:59:15;;;;;;;159.10;16.23;;;;;;;2.48;100.00;99121.56;4500741;31;20084;-74
2021/12/30 09:01:42;;;;;;;161.77;13.95;;;;;;;2.60;100.00;99131.28;4486523;31;20100;-74
2021/12/30 09:04:10;;;;;;;59.78;11.85;;;;;;;2.74;100.00;99125.41;4484800;31;20143;-74
2021/12/30 09:06:37;;;;;;;138.25;19.83;;;;;;;2.90;100.00;99129.78;4484595;31;20111;-75
2021/12/30 09:09:04;;;;;;;187.32;17.33;;;;;;;2.94;100.00;99132.16;4484513;31;20100;-75
2021/12/30 09:11:31;;;;;;;126.10;16.48;;;;;;;2.93;100.00;99140.81;4484642;31;20097;-74
2021/12/30 09:13:58;;;;;;;123.28;13.95;;;;;;;3.02;100.00;99135.16;4484560;31;20092;-75
2021/12/30 09:16:26;;;;;;;124.85;13.38;;;;;;;3.13;100.00;99131.16;4484348;31;20127;-75
2021/12/30 09:18:53;;;;;;;203.10;17.95;;;;;;;3.09;100.00;99125.34;4484802;32;20149;-75
2021/12/30 09:21:20;;;;;;;167.57;16.15;;;;;;;2.81;100.00;99116.41;4484474;31;20089;-74
2021/12/30 09:23:48;;;;;;;64.47;12.25;;;;;;;2.75;100.00;99126.25;4484421;31;20104;-75
2021/12/30 09:26:15;;;;;;;196.12;16.77;;;;;;;2.91;100.00;99119.38;4482342;32;20108;-75
2021/12/30 09:28:43;;;;;;;104.25;12.77;;;;;;;2.90;100.00;99115.09;4483112;32;20159;-75
2021/12/30 09:31:10;;;;;;;119.78;12.60;;;;;;;3.04;100.00;99109.19;4484429;31;20124;-75
2021/12/30 09:33:37;;;;;;;270.83;17.15;;;;;;;3.10;100.00;99120.97;4484507;31;20092;-75
2021/12/30 09:36:05;;;;;;;129.00;14.93;;;;;;;3.14;100.00;99131.09;4484240;31;20100;-75
2021/12/30 09:38:32;;;;;;;184.90;15.10;;;;;;;3.21;100.00;99136.78;4484146;31;20096;-75
2021/12/30 09:40:59;;;;;;;128.32;16.33;;;;;;;3.15;100.00;99150.03;4484368;31;20379;-75
2021/12/30 09:43:30;;;;;;;257.95;21.00;;;;;;;3.20;100.00;99142.88;4484266;31;20084;-75
2021/12/30 09:45:58;;;;;;;233.00;17.00;;;;;;;3.27;100.00;99143.38;4484141;31;20138;-75
2021/12/30 09:48:29;;;;;;;265.62;24.12;;;;;;;3.34;100.00;99147.31;4483947;32;20115;-75
2021/12/30 09:50:56;;;;;;;231.48;17.37;;;;;;;3.35;100.00;99151.59;4483998;31;20426;-75
2021/12/30 09:53:25;;;;;;;172.70;17.62;;;;;;;3.39;100.00;99150.50;4484133;31;20100;-75
2021/12/30 09:55:57;;;;;;;134.75;15.75;;;;;;;3.36;100.00;99151.50;4484126;32;20116;-75
2021/12/30 09:58:24;;;;;;;117.95;15.05;;;;;;;3.40;100.00;99146.16;4483960;32;20155;-75
2021/12/30 10:00:51;;;;;;;136.88;14.77;;;;;;;3.48;100.00;99138.81;4492297;31;20152;-75
2021/12/30 10:03:25;;;;;;;188.10;20.88;;;;;;;3.69;100.00;99144.56;4499910;31;20084;-75
2021/12/30 10:05:53;;;;;;;114.60;15.50;;;;;;;3.68;100.00;99143.75;4499674;31;20122;-75
2021/12/30 10:08:25;;;;;;;209.02;18.35;;;;;;;3.69;100.00;99148.03;4499640;31;20088;-75
2021/12/30 10:10:55;;;;;;;111.05;15.73;;;;;;;3.38;100.00;99143.66;4499635;31;20099;-75
2021/12/30 10:13:31;;;;;;;93.97;14.38;;;;;;;3.28;100.00;99140.72;4499760;31;20081;-75
2021/12/30 10:16:13;;;;;;;86.68;13.77;;;;;;;3.40;100.00;99140.97;4499506;31;20104;-75
2021/12/30 10:19:00;;;;;;;105.47;16.17;;;;;;;3.49;100.00;99148.25;4499607;31;20148;-75
2021/12/30 10:21:34;;;;;;;141.25;16.25;;;;;;;3.50;100.00;99140.41;4499616;31;20113;-75
2021/12/30 10:24:05;;;;;;;184.70;17.95;;;;;;;3.50;100.00;99143.00;4499580;31;20114;-75
2021/12/30 10:27:02;;;;;;;95.80;15.82;;;;;;;3.44;100.00;99142.50;4499088;31;20155;-75
2021/12/30 10:29:43;;;;;;;109.20;15.07;;;;;;;3.46;100.00;99136.28;4434245;32;20113;-75
2021/12/30 10:32:16;;;;;;;151.65;17.05;;;;;;;3.59;100.00;99144.25;4434598;32;20171;-75
2021/12/30 10:35:06;;;;;;;163.07;17.05;;;;;;;3.60;100.00;99140.72;4434237;32;20172;-75
2021/12/30 10:37:35;;;;;;;180.65;18.50;;;;;;;3.48;100.00;99141.41;4436080;32;20114;-75
2021/12/30 10:40:04;;;;;;;99.62;15.50;;;;;;;3.36;100.00;99138.56;4436588;32;20093;-75
2021/12/30 10:42:33;;;;;;;139.25;17.92;;;;;;;3.41;100.00;99146.09;4436715;32;20308;-75
2021/12/30 10:45:05;;;;;;;129.85;19.37;;;;;;;3.44;100.00;99138.16;4436719;32;20102;-75
2021/12/30 10:47:34;;;;;;;114.47;17.80;;;;;;;3.50;100.00;99139.56;4436503;32;20101;-75
2021/12/30 10:50:08;;;;;;;274.20;23.25;;;;;;;3.56;100.00;99134.06;4423717;32;20471;-75
2021/12/30 10:52:49;;;;;;;194.77;23.80;;;;;;;3.49;100.00;99123.19;4436694;32;20085;-75
2021/12/30 10:55:17;;;;;;;164.50;19.37;;;;;;;3.22;100.00;99125.50;4436425;32;20113;-75
2021/12/30 10:57:44;;;;;;;93.43;16.98;;;;;;;3.10;100.00;99115.81;4436503;32;20132;-75
2021/12/30 11:00:33;;;;;;;181.87;20.40;;;;;;;3.15;100.00;99113.78;4432682;32;20488;-75
2021/12/30 11:03:27;;;;;;;152.80;19.00;;;;;;;3.19;100.00;99117.91;4421349;32;20089;-75
2021/12/30 11:06:17;;;;;;;105.00;15.30;;;;;;;3.19;100.00;99115.31;4451522;32;20092;-75
2021/12/30 11:08:47;;;;;;;66.90;16.83;;;;;;;3.42;100.00;99114.06;4485413;31;20610;-75
2021/12/30 11:11:28;;;;;;;105.90;17.80;;;;;;;3.32;100.00;99116.31;4485701;31;20097;-75
2021/12/30 11:14:08;;;;;;;86.30;17.25;;;;;;;3.09;100.00;99109.81;4485474;31;20505;-75
2021/12/30 11:17:23;;;;;;;164.90;23.33;;;;;;;3.27;100.00;99118.34;4485383;31;20532;-75
2021/12/30 11:19:58;;;;;;;152.70;19.73;;;;;;;3.14;100.00;99112.16;4451937;32;20105;-75
2021/12/30 11:22:27;;;;;;;106.05;18.62;;;;;;;3.12;100.00;99108.78;4452255;32;20143;-75
2021/12/30 11:24:58;;;;;;;144.20;23.50;;;;;;;2.97;100.00;99108.69;4452034;32;20698;-75